createdAt,value
2019-03-24T00:02:27.299Z,15.60
2019-03-24T00:04:58.595Z,20.30
2019-03-24T00:07:29.935Z,18.80
2019-03-24T00:10:01.296Z,19.62
2019-03-24T00:12:32.661Z,18.52
2019-03-24T00:15:05.855Z,20.77
2019-03-24T00:17:37.151Z,17.95
2019-03-24T00:20:10.201Z,18.50
2019-03-24T00:22:41.356Z,16.40
2019-03-24T00:25:12.759Z,18.30
2019-03-24T00:27:43.956Z,18.30
2019-03-24T00:30:15.204Z,15.63
2019-03-24T00:32:46.482Z,17.65
2019-03-24T00:35:17.806Z,17.65
2019-03-24T00:37:49.056Z,19.10
2019-03-24T00:40:20.393Z,16.97
2019-03-24T00:42:51.693Z,19.70
2019-03-24T00:45:23.018Z,19.45
2019-03-24T00:47:54.369Z,18.80
2019-03-24T00:50:25.649Z,20.05
2019-03-24T00:52:56.970Z,21.33
2019-03-24T00:55:28.260Z,19.27
2019-03-24T00:57:59.479Z,19.65
2019-03-24T01:00:45.050Z,16.80
2019-03-24T01:03:17.472Z,17.15
2019-03-24T01:05:48.891Z,18.12
2019-03-24T01:08:20.215Z,19.87
2019-03-24T01:10:51.625Z,17.98
2019-03-24T01:13:22.970Z,18.40
2019-03-24T01:15:54.557Z,17.75
2019-03-24T01:18:25.874Z,19.23
2019-03-24T01:20:57.191Z,17.90
2019-03-24T01:23:28.489Z,17.20
2019-03-24T01:25:59.825Z,15.98
2019-03-24T01:28:31.104Z,19.35
2019-03-24T01:31:02.393Z,17.70
2019-03-24T01:33:33.719Z,18.73
2019-03-24T01:36:05.063Z,16.70
2019-03-24T01:38:37.755Z,17.82
2019-03-24T01:41:09.089Z,15.72
2019-03-24T01:43:40.411Z,18.40
2019-03-24T01:46:11.881Z,17.65
2019-03-24T01:48:43.160Z,19.20
2019-03-24T01:51:17.914Z,17.17
2019-03-24T01:53:50.111Z,17.00
2019-03-24T01:56:22.452Z,16.32
2019-03-24T01:58:53.651Z,17.35
2019-03-24T02:01:25.003Z,15.58
2019-03-24T02:03:56.186Z,15.83
2019-03-24T02:06:27.440Z,15.40
2019-03-24T02:08:58.737Z,14.68
2019-03-24T02:11:30.087Z,16.23
2019-03-24T02:14:01.311Z,17.80
2019-03-24T02:16:32.659Z,15.95
2019-03-24T02:19:03.880Z,17.32
2019-03-24T02:21:35.206Z,16.35
2019-03-24T02:24:06.438Z,16.80
2019-03-24T02:26:37.643Z,13.95
2019-03-24T02:29:08.853Z,16.32
2019-03-24T02:31:40.054Z,17.05
2019-03-24T02:34:11.550Z,19.25
2019-03-24T02:36:44.001Z,15.93
2019-03-24T02:39:15.380Z,16.80
2019-03-24T02:41:46.875Z,16.42
2019-03-24T02:44:20.346Z,15.13
2019-03-24T02:46:51.576Z,14.53
2019-03-24T02:49:22.897Z,14.07
2019-03-24T02:51:54.545Z,13.15
2019-03-24T02:54:25.745Z,16.30
2019-03-24T02:56:57.040Z,16.35
2019-03-24T02:59:29.634Z,13.80
2019-03-24T03:02:00.819Z,13.53
2019-03-24T03:04:32.048Z,14.00
2019-03-24T03:07:04.288Z,12.80
2019-03-24T03:09:36.575Z,13.85
2019-03-24T03:12:07.822Z,13.72
2019-03-24T03:14:40.432Z,15.80
2019-03-24T03:17:11.749Z,18.77
2019-03-24T03:19:43.078Z,15.55
2019-03-24T03:22:15.503Z,13.62
2019-03-24T03:24:46.878Z,18.20
2019-03-24T03:27:18.222Z,13.43
2019-03-24T03:29:49.405Z,17.17
2019-03-24T03:32:20.708Z,15.18
2019-03-24T03:34:52.005Z,12.75
2019-03-24T03:37:23.464Z,13.72
2019-03-24T03:39:57.891Z,19.50
2019-03-24T03:42:28.124Z,16.82
2019-03-24T03:44:59.529Z,15.23
2019-03-24T03:47:31.138Z,15.28
2019-03-24T03:50:02.439Z,12.78
2019-03-24T03:52:33.702Z,13.43
2019-03-24T03:55:05.988Z,16.52
2019-03-24T03:57:37.530Z,13.78
2019-03-24T04:00:09.065Z,15.13
2019-03-24T04:02:40.319Z,14.43
2019-03-24T04:05:12.766Z,13.58
2019-03-24T04:07:43.924Z,13.43
2019-03-24T04:10:15.116Z,12.07
2019-03-24T04:12:47.394Z,12.55
2019-03-24T04:15:18.529Z,16.07
2019-03-24T04:17:49.773Z,12.28
2019-03-24T04:20:20.994Z,12.98
2019-03-24T04:22:53.291Z,13.68
2019-03-24T04:25:24.466Z,12.98
2019-03-24T04:27:55.673Z,13.00
2019-03-24T04:30:27.841Z,11.90
2019-03-24T04:32:59.059Z,13.00
2019-03-24T04:35:30.629Z,13.03
2019-03-24T04:38:01.855Z,12.85
2019-03-24T04:40:33.066Z,11.80
2019-03-24T04:43:04.343Z,13.45
2019-03-24T04:45:36.427Z,14.45
2019-03-24T04:48:07.615Z,12.98
2019-03-24T04:50:38.829Z,12.58
2019-03-24T04:53:10.011Z,56.33
2019-03-24T04:55:41.307Z,17.98
2019-03-24T04:58:12.639Z,80.72
2019-03-24T05:00:44.068Z,30.55
2019-03-24T05:03:15.389Z,25.97
2019-03-24T05:05:46.748Z,15.88
2019-03-24T05:08:18.052Z,14.40
2019-03-24T05:10:49.291Z,14.10
2019-03-24T05:13:20.549Z,16.35
2019-03-24T05:15:53.135Z,15.53
2019-03-24T05:18:24.836Z,13.03
2019-03-24T05:20:56.299Z,18.02
2019-03-24T05:23:27.643Z,24.77
2019-03-24T05:25:59.051Z,15.13
2019-03-24T05:28:30.982Z,20.20
2019-03-24T05:31:02.292Z,14.93
2019-03-24T05:33:33.576Z,14.00
2019-03-24T05:36:04.811Z,13.25
2019-03-24T05:38:36.042Z,14.80
2019-03-24T05:41:07.185Z,11.00
2019-03-24T05:43:38.437Z,11.30
2019-03-24T05:46:10.001Z,9.23
2019-03-24T05:48:41.173Z,9.33
2019-03-24T05:51:12.304Z,12.03
2019-03-24T05:53:43.524Z,12.80
2019-03-24T05:56:14.936Z,11.40
2019-03-24T05:58:46.277Z,9.98
2019-03-24T06:01:17.519Z,14.58
2019-03-24T06:03:48.729Z,12.13
2019-03-24T06:06:19.896Z,11.15
2019-03-24T06:08:51.084Z,11.65
2019-03-24T06:11:23.289Z,11.97
2019-03-24T06:13:55.581Z,12.15
2019-03-24T06:16:26.741Z,10.72
2019-03-24T06:18:57.873Z,13.32
2019-03-24T06:21:29.034Z,12.65
2019-03-24T06:24:00.245Z,11.40
2019-03-24T06:26:31.405Z,13.68
2019-03-24T06:29:02.728Z,11.95
2019-03-24T06:31:33.961Z,10.30
2019-03-24T06:34:06.228Z,9.53
2019-03-24T06:36:37.451Z,10.10
2019-03-24T06:39:08.757Z,9.78
2019-03-24T06:41:40.045Z,10.48
2019-03-24T06:44:11.246Z,9.70
2019-03-24T06:46:42.434Z,27.37
2019-03-24T06:49:13.740Z,11.55
2019-03-24T06:51:45.307Z,11.38
2019-03-24T06:54:16.715Z,14.45
2019-03-24T06:56:49.046Z,11.45
2019-03-24T06:59:20.273Z,10.85
2019-03-24T07:01:51.496Z,10.40
2019-03-24T07:04:22.703Z,7.97
2019-03-24T07:06:54.088Z,8.85
2019-03-24T07:09:25.277Z,10.50
2019-03-24T07:11:56.517Z,9.83
2019-03-24T07:14:28.765Z,9.98
2019-03-24T07:16:59.989Z,8.23
2019-03-24T07:19:31.212Z,10.15
2019-03-24T07:22:02.438Z,7.08
2019-03-24T07:24:33.682Z,8.88
2019-03-24T07:27:04.828Z,7.42
2019-03-24T07:29:36.199Z,8.80
2019-03-24T07:32:07.826Z,8.03
2019-03-24T07:34:39.192Z,8.55
2019-03-24T07:37:10.424Z,7.60
2019-03-24T07:39:41.561Z,7.08
2019-03-24T07:42:12.757Z,5.60
2019-03-24T07:44:43.855Z,7.03
2019-03-24T07:47:15.244Z,7.20
2019-03-24T07:49:46.493Z,6.00
2019-03-24T07:52:17.699Z,5.03
2019-03-24T07:54:50.484Z,8.08
2019-03-24T07:57:21.785Z,5.40
2019-03-24T07:59:53.141Z,14.85
2019-03-24T08:02:28.032Z,5.80
2019-03-24T08:05:02.291Z,5.83
2019-03-24T08:07:50.933Z,5.78
2019-03-24T08:10:22.182Z,20.23
2019-03-24T08:12:53.625Z,10.03
2019-03-24T08:15:24.871Z,6.87
2019-03-24T08:17:56.083Z,5.83
2019-03-24T08:20:27.308Z,6.50
2019-03-24T08:22:58.580Z,3.90
2019-03-24T08:25:29.711Z,5.78
2019-03-24T08:28:00.978Z,8.43
2019-03-24T08:30:34.017Z,5.67
2019-03-24T08:33:05.797Z,5.67
2019-03-24T08:35:39.925Z,6.03
2019-03-24T08:38:11.152Z,5.47
2019-03-24T08:40:42.378Z,5.10
2019-03-24T08:43:13.598Z,4.92
2019-03-24T08:45:48.590Z,5.50
2019-03-24T08:50:50.143Z,5.65
2019-03-24T08:53:21.402Z,5.80
2019-03-24T08:55:52.606Z,4.55
2019-03-24T08:58:23.831Z,6.80
2019-03-24T09:00:55.037Z,5.30
2019-03-24T09:03:26.385Z,6.03
2019-03-24T09:05:57.590Z,5.80
2019-03-24T09:08:28.874Z,5.80
2019-03-24T09:11:02.694Z,6.12
2019-03-24T09:13:33.928Z,5.15
2019-03-24T09:16:05.238Z,5.40
2019-03-24T09:18:36.504Z,6.95
2019-03-24T09:21:07.757Z,7.22
2019-03-24T09:23:39.025Z,6.17
2019-03-24T09:26:10.389Z,6.97
2019-03-24T09:28:42.021Z,5.62
2019-03-24T09:31:14.533Z,5.33
2019-03-24T09:33:45.781Z,6.25
2019-03-24T09:36:17.068Z,5.80
2019-03-24T09:38:48.249Z,7.70
2019-03-24T09:41:19.378Z,5.50
2019-03-24T09:43:50.759Z,6.67
2019-03-24T09:46:23.223Z,5.75
2019-03-24T09:49:02.634Z,6.58
2019-03-24T09:51:27.311Z,5.33
2019-03-24T09:53:59.710Z,6.12
2019-03-24T09:56:31.007Z,7.95
2019-03-24T09:59:02.241Z,5.78
2019-03-24T10:01:34.046Z,6.17
2019-03-24T10:04:08.208Z,6.53
2019-03-24T10:06:39.590Z,6.67
2019-03-24T10:09:10.880Z,9.08
2019-03-24T10:11:45.489Z,4.78
2019-03-24T10:14:18.732Z,5.83
2019-03-24T10:16:50.213Z,7.03
2019-03-24T10:19:21.501Z,5.97
2019-03-24T10:21:52.890Z,5.87
2019-03-24T10:24:24.854Z,7.33
2019-03-24T10:26:56.149Z,8.18
2019-03-24T10:29:27.609Z,8.85
2019-03-24T10:31:59.858Z,6.65
2019-03-24T10:34:31.151Z,7.20
2019-03-24T10:37:02.563Z,8.58
2019-03-24T10:39:34.537Z,8.93
2019-03-24T10:42:05.996Z,5.33
2019-03-24T10:44:40.456Z,5.65
2019-03-24T10:47:12.097Z,5.53
2019-03-24T10:49:43.546Z,5.85
2019-03-24T10:52:15.000Z,6.92
2019-03-24T10:54:46.246Z,7.15
2019-03-24T10:57:17.599Z,5.95
2019-03-24T10:59:50.090Z,6.58
2019-03-24T11:02:21.289Z,6.40
2019-03-24T11:04:54.793Z,7.35
2019-03-24T11:07:26.000Z,7.80
2019-03-24T11:09:58.207Z,8.73
2019-03-24T11:12:29.447Z,11.90
2019-03-24T11:15:00.673Z,10.48
2019-03-24T11:17:33.000Z,16.93
2019-03-24T11:20:05.897Z,14.73
2019-03-24T11:22:37.142Z,13.68
2019-03-24T11:25:09.401Z,11.63
2019-03-24T11:27:41.465Z,17.70
2019-03-24T11:30:13.587Z,12.35
2019-03-24T11:32:45.033Z,9.78
2019-03-24T11:35:17.385Z,7.35
2019-03-24T11:37:48.668Z,7.17
2019-03-24T11:40:21.609Z,8.15
2019-03-24T11:42:53.524Z,7.12
2019-03-24T11:45:24.965Z,13.50
2019-03-24T11:47:56.571Z,15.95
2019-03-24T11:50:29.532Z,14.25
2019-03-24T11:53:01.929Z,9.60
2019-03-24T11:55:38.352Z,7.97
2019-03-24T11:58:10.180Z,6.08
2019-03-24T12:00:41.566Z,6.20
2019-03-24T12:03:13.068Z,7.28
2019-03-24T12:05:44.246Z,5.53
2019-03-24T12:08:17.418Z,7.85
2019-03-24T12:10:50.560Z,5.80
2019-03-24T12:13:24.981Z,7.62
2019-03-24T12:16:01.645Z,18.32
2019-03-24T12:18:32.884Z,6.65
2019-03-24T12:21:04.385Z,8.58
2019-03-24T12:23:35.648Z,6.65
2019-03-24T12:26:07.107Z,6.25
2019-03-24T12:28:42.330Z,6.00
2019-03-24T12:31:33.738Z,7.40
2019-03-24T12:34:05.691Z,6.67
2019-03-24T12:36:45.853Z,7.00
2019-03-24T12:39:22.583Z,9.83
2019-03-24T12:41:54.639Z,5.50
2019-03-24T12:44:32.498Z,6.37
2019-03-24T12:47:06.490Z,7.92
2019-03-24T12:49:47.221Z,7.42
2019-03-24T12:52:29.036Z,7.22
2019-03-24T12:55:12.946Z,7.42
2019-03-24T12:57:47.609Z,8.33
2019-03-24T13:00:38.386Z,8.60
2019-03-24T13:03:15.368Z,7.50
2019-03-24T13:05:46.804Z,8.60
2019-03-24T13:08:23.021Z,7.85
2019-03-24T13:11:05.629Z,7.80
2019-03-24T13:13:41.432Z,8.85
2019-03-24T13:16:16.689Z,11.20
2019-03-24T13:18:51.153Z,11.12
2019-03-24T13:21:28.428Z,9.55
2019-03-24T13:24:00.449Z,7.80
2019-03-24T13:26:34.192Z,7.50
2019-03-24T13:29:09.459Z,10.13
2019-03-24T13:31:53.425Z,12.05
2019-03-24T13:34:29.652Z,9.80
2019-03-24T13:37:10.392Z,9.10
2019-03-24T13:39:45.925Z,13.85
2019-03-24T13:42:21.234Z,9.10
2019-03-24T13:44:56.633Z,8.58
2019-03-24T13:47:32.882Z,10.15
2019-03-24T13:50:07.751Z,6.35
2019-03-24T13:52:45.740Z,6.53
2019-03-24T13:55:18.560Z,10.68
2019-03-24T13:57:57.523Z,8.18
2019-03-24T14:00:30.167Z,9.98
2019-03-24T14:03:07.904Z,8.48
2019-03-24T14:05:39.196Z,10.58
2019-03-24T14:08:13.376Z,13.10
2019-03-24T14:10:47.078Z,9.75
2019-03-24T14:13:23.462Z,10.45
2019-03-24T14:16:02.827Z,9.35
2019-03-24T14:18:34.025Z,8.50
2019-03-24T14:21:13.396Z,10.30
2019-03-24T14:23:51.349Z,10.25
2019-03-24T14:26:26.161Z,11.57
2019-03-24T14:29:09.765Z,11.38
2019-03-24T14:31:45.469Z,12.53
2019-03-24T14:34:18.640Z,9.63
2019-03-24T14:36:54.037Z,8.95
2019-03-24T14:39:25.344Z,11.85
2019-03-24T14:41:56.569Z,11.50
2019-03-24T14:44:28.850Z,8.43
2019-03-24T14:47:00.189Z,9.20
2019-03-24T14:49:31.342Z,13.03
2019-03-24T14:52:02.716Z,12.53
2019-03-24T14:54:33.987Z,13.00
2019-03-24T14:57:05.129Z,17.62
2019-03-24T14:59:36.393Z,13.50
2019-03-24T15:02:07.723Z,13.03
2019-03-24T15:04:39.088Z,18.65
2019-03-24T15:07:12.983Z,14.25
2019-03-24T15:09:46.305Z,16.82
2019-03-24T15:12:17.474Z,23.38
2019-03-24T15:14:55.878Z,18.42
2019-03-24T15:17:40.533Z,21.52
2019-03-24T15:22:48.350Z,21.40
2019-03-24T15:25:24.189Z,17.57
2019-03-24T15:27:58.239Z,19.48
2019-03-24T15:30:34.384Z,18.65
2019-03-24T15:33:07.878Z,21.70
2019-03-24T15:35:39.265Z,20.00
2019-03-24T15:38:10.672Z,20.90
2019-03-24T15:40:42.148Z,20.77
2019-03-24T15:43:15.460Z,24.18
2019-03-24T15:45:46.818Z,25.20
2019-03-24T15:48:18.172Z,27.55
2019-03-24T15:50:50.503Z,29.70
2019-03-24T15:53:24.018Z,25.75
2019-03-24T15:55:55.355Z,27.95
2019-03-24T15:58:26.690Z,33.58
2019-03-24T16:01:01.649Z,33.90
2019-03-24T16:03:33.305Z,31.48
2019-03-24T16:06:08.613Z,36.53
2019-03-24T16:08:42.699Z,33.75
2019-03-24T16:11:16.209Z,39.45
2019-03-24T16:13:47.972Z,38.70
2019-03-24T16:16:25.384Z,34.70
2019-03-24T16:19:13.400Z,37.08
2019-03-24T16:22:02.899Z,44.48
2019-03-24T16:24:54.806Z,38.28
2019-03-24T16:27:26.338Z,38.75
2019-03-24T16:32:32.332Z,42.62
2019-03-24T16:35:13.800Z,34.08
2019-03-24T16:37:47.948Z,38.60
2019-03-24T16:40:24.613Z,40.00
2019-03-24T16:42:58.582Z,41.80
2019-03-24T16:45:29.964Z,43.15
2019-03-24T16:48:01.234Z,49.50
2019-03-24T16:50:32.601Z,50.78
2019-03-24T16:53:03.851Z,62.38
2019-03-24T16:55:35.139Z,69.05
2019-03-24T16:58:08.528Z,59.77
2019-03-24T17:00:39.835Z,65.55
2019-03-24T17:03:11.152Z,61.33
2019-03-24T17:05:42.428Z,62.08
2019-03-24T17:08:13.778Z,58.95
2019-03-24T17:10:45.226Z,64.80
2019-03-24T17:13:16.739Z,64.05
2019-03-24T17:15:48.257Z,64.60
2019-03-24T17:18:19.549Z,60.08
2019-03-24T17:20:50.907Z,60.78
2019-03-24T17:23:22.211Z,57.95
2019-03-24T17:25:53.608Z,56.68
2019-03-24T17:28:24.912Z,59.27
2019-03-24T17:30:56.265Z,57.40
2019-03-24T17:33:27.600Z,56.40
2019-03-24T17:36:02.775Z,66.82
2019-03-24T17:38:34.077Z,61.08
2019-03-24T17:41:05.445Z,54.40
2019-03-24T17:43:36.769Z,58.28
2019-03-24T17:46:08.120Z,49.73
2019-03-24T17:48:39.429Z,51.00
2019-03-24T17:51:12.347Z,47.45
2019-03-24T17:53:43.655Z,44.63
2019-03-24T17:56:14.956Z,47.88
2019-03-24T17:58:46.344Z,51.35
2019-03-24T18:01:17.659Z,48.78
2019-03-24T18:03:49.066Z,43.13
2019-03-24T18:06:20.453Z,44.40
2019-03-24T18:08:52.842Z,41.02
2019-03-24T18:11:24.160Z,38.38
2019-03-24T18:13:55.493Z,45.30
2019-03-24T18:16:26.810Z,37.73
2019-03-24T18:18:58.057Z,43.58
2019-03-24T18:21:29.318Z,42.08
2019-03-24T18:24:00.657Z,40.55
2019-03-24T18:26:33.068Z,43.42
2019-03-24T18:29:05.488Z,37.80
2019-03-24T18:31:36.808Z,33.28
2019-03-24T18:34:08.149Z,31.50
2019-03-24T18:36:39.461Z,31.27
2019-03-24T18:39:14.041Z,36.38
2019-03-24T18:41:46.458Z,32.73
2019-03-24T18:44:18.848Z,37.03
2019-03-24T18:46:50.188Z,36.98
2019-03-24T18:49:21.505Z,31.97
2019-03-24T18:51:52.807Z,33.10
2019-03-24T18:54:24.171Z,34.73
2019-03-24T18:56:57.820Z,36.90
2019-03-24T18:59:29.173Z,32.60
2019-03-24T19:02:00.553Z,34.58
2019-03-24T19:04:31.874Z,30.00
2019-03-24T19:07:03.552Z,30.25
2019-03-24T19:09:34.932Z,36.08
2019-03-24T19:12:06.375Z,33.78
2019-03-24T19:14:40.124Z,32.23
2019-03-24T19:17:11.162Z,33.45
2019-03-24T19:19:42.668Z,29.63
2019-03-24T19:22:14.010Z,29.40
2019-03-24T19:24:45.326Z,29.80
2019-03-24T19:27:18.011Z,26.95
2019-03-24T19:29:49.448Z,21.33
2019-03-24T19:32:20.785Z,22.05
2019-03-24T19:34:52.243Z,23.87
2019-03-24T19:37:23.655Z,18.62
2019-03-24T19:39:56.133Z,21.27
2019-03-24T19:42:27.381Z,18.60
2019-03-24T19:45:00.318Z,18.45
2019-03-24T19:47:31.559Z,21.70
2019-03-24T19:50:05.251Z,18.45
2019-03-24T19:52:44.369Z,17.40
2019-03-24T19:55:09.476Z,18.60
2019-03-24T19:57:41.821Z,22.60
2019-03-24T20:00:13.191Z,21.17
2019-03-24T20:02:44.589Z,21.97
2019-03-24T20:05:15.889Z,20.00
2019-03-24T20:07:48.578Z,17.90
2019-03-24T20:10:22.009Z,17.42
2019-03-24T20:12:53.213Z,16.73
2019-03-24T20:15:25.937Z,15.05
2019-03-24T20:17:57.219Z,17.48
2019-03-24T20:20:28.473Z,17.95
2019-03-24T20:22:59.598Z,14.63
2019-03-24T20:25:30.883Z,17.45
2019-03-24T20:28:02.067Z,16.17
2019-03-24T20:30:34.216Z,17.05
2019-03-24T20:33:05.487Z,16.00
2019-03-24T20:35:36.737Z,15.75
2019-03-24T20:38:07.928Z,17.12
2019-03-24T20:40:39.123Z,16.15
2019-03-24T20:43:12.106Z,19.10
2019-03-24T20:45:43.345Z,16.12
2019-03-24T20:48:17.086Z,19.95
2019-03-24T20:50:48.353Z,18.07
2019-03-24T20:53:21.019Z,18.67
2019-03-24T20:55:54.364Z,21.73
2019-03-24T20:58:32.845Z,18.23
2019-03-24T21:01:04.291Z,23.30
2019-03-24T21:03:37.241Z,25.10
2019-03-24T21:06:08.587Z,25.10
2019-03-24T21:08:39.888Z,28.15
2019-03-24T21:11:11.357Z,21.27
2019-03-24T21:13:45.166Z,26.35
2019-03-24T21:16:15.926Z,25.65
2019-03-24T21:18:47.160Z,25.27
2019-03-24T21:21:20.597Z,30.82
2019-03-24T21:23:52.184Z,27.37
2019-03-24T21:26:23.536Z,28.70
2019-03-24T21:28:54.878Z,31.55
2019-03-24T21:31:26.231Z,29.23
2019-03-24T21:33:57.539Z,28.52
2019-03-24T21:36:28.855Z,34.63
2019-03-24T21:39:00.043Z,38.13
2019-03-24T21:41:32.000Z,38.45
2019-03-24T21:44:03.311Z,40.35
2019-03-24T21:46:34.722Z,44.35
2019-03-24T21:49:06.061Z,41.42
2019-03-24T21:51:37.476Z,42.07
2019-03-24T21:54:08.844Z,45.20
2019-03-24T21:56:40.074Z,49.60
2019-03-24T21:59:11.404Z,52.50
2019-03-24T22:01:42.718Z,49.25
2019-03-24T22:04:14.038Z,50.03
2019-03-24T22:06:45.485Z,52.33
2019-03-24T22:09:16.782Z,56.33
2019-03-24T22:11:47.961Z,49.45
2019-03-24T22:14:19.198Z,58.20
2019-03-24T22:16:50.427Z,56.55
2019-03-24T22:19:21.689Z,58.80
2019-03-24T22:21:52.833Z,58.70
2019-03-24T22:24:24.120Z,63.42
2019-03-24T22:26:55.415Z,66.97
2019-03-24T22:29:26.782Z,65.70
2019-03-24T22:31:58.486Z,65.55
2019-03-24T22:34:29.755Z,68.85
2019-03-24T22:37:00.975Z,66.22
2019-03-24T22:39:32.207Z,77.90
2019-03-24T22:42:04.090Z,75.42
2019-03-24T22:44:36.424Z,68.30
2019-03-24T22:47:07.711Z,76.12
2019-03-24T22:49:38.985Z,68.57
2019-03-24T22:52:10.323Z,73.83
2019-03-24T22:54:41.636Z,60.75
2019-03-24T22:57:12.933Z,68.10
2019-03-24T22:59:44.274Z,57.17
2019-03-24T23:02:15.588Z,61.77
2019-03-24T23:04:46.858Z,61.80
2019-03-24T23:07:18.182Z,60.10
2019-03-24T23:09:49.502Z,74.50
2019-03-24T23:12:20.835Z,63.48
2019-03-24T23:14:52.204Z,66.75
2019-03-24T23:17:23.507Z,63.05
2019-03-24T23:19:54.832Z,61.35
2019-03-24T23:22:28.150Z,63.33
2019-03-24T23:24:59.480Z,58.78
2019-03-24T23:27:30.785Z,60.05
2019-03-24T23:30:03.714Z,58.38
2019-03-24T23:32:35.057Z,55.48
2019-03-24T23:35:07.167Z,53.23
2019-03-24T23:37:38.486Z,53.15
2019-03-24T23:40:09.809Z,52.60
2019-03-24T23:42:41.101Z,54.88
2019-03-24T23:45:12.435Z,55.33
2019-03-24T23:47:43.699Z,50.05
2019-03-24T23:50:15.054Z,62.88
2019-03-24T23:52:46.543Z,57.58
2019-03-24T23:55:19.380Z,55.23
2019-03-24T23:57:51.054Z,52.25
